Malaga, OH (43757)

11:35 PM EDT die 25o May, anno 2017 (GMT -0400)
Jerusalem | | Change Station

Elev 1253 ft 39.86 °N, 81.11 °W | Updated 3 seconds ago

Pluvia
Pluvia
57.4 °F
Feels Like 57.4 °F
N
2.0
Ventus Variabilis Ventus from Zephyrus
Gusts 3.0 mph

Hodie
High -- | Low -- °F
--% Chance of Precip.
Yesterday
High -- | Low -- °F
Precip. -- in
Pressio 29.60 in
Visibilitas 6.0 milia passuum
Clouds Plerumque Nubila 600 ft
Plerumque Nubila 1100 ft
Aequaliter Nubila 4500 ft
Frigus in quo Ros apparet 56 °F
Umor 97%
Rainfall 0.30 in
Snow Depth Not available.
6:01 AM 8:41 PM
New, 0% visible
SPECI KHLG 260324Z AUTO 23004KT 6SM -RA BR BKN006 BKN011 OVC045 14/13 A2960 RMK AO2 P0005 T01390128
Pressio 29.60 in
Visibilitas 6.0 milia passuum
Clouds Plerumque Nubila 600 ft
Plerumque Nubila 1100 ft
Aequaliter Nubila 4500 ft
Frigus in quo Ros apparet 56 °F
Umor 97%
Rainfall 0.30 in
Snow Depth Not available.
6:01 AM 8:41 PM
New, 0% visible
SPECI KHLG 260324Z AUTO 23004KT 6SM -RA BR BKN006 BKN011 OVC045 14/13 A2960 RMK AO2 P0005 T01390128

Get Severe Weather Alerts

Thanks for signing up!

Be on the lookout for a verification email in your inbox.

You'll start receiving the daily forecast at 6 AM.

×

10-Day Weather Forecast

Almanac

Astronomy

May. 25, 2017 Rise Set
Actual Time
Civil Twilight
Nautical Twilight
Astronomical Twilight
Moon
Length Of Visible Light
Length of Day
Tomorrow will be .
, % of the Moon is Illuminated

Today's Extremes

State Highs State Lows

Community

WunderPhotos

Category 6

Welcome to Category 6. This is the collective home for Weather Underground's featured writeups by Dr. Jeff Masters (right), Bob Henson (left), Chris Burt, and other regular contributors.

Nearby

Air Quality

  Air Quality AQ Index Pollutant
Not available.

Snow Depth

Station Depth Elevation

Earthquake Activity

City Distance Mag. Time & Date
Minimum magnitude displayed is 2.5.

Coastal Water Temperatures

Locus Calor

Stations

Nearby Weather Stations

Station Location Temp Frigus Venti Frigus in quo Ros apparet Umor Ventus Precip. Elev Renovata Type
                   

Watches & Warnings

There are currently no watches in effect.